ENAT/ALF METAR and TAF weather

Enter ICAO airport designator
Station Type Date Time Source
ENAT METAR 2021/05/14 13:20 UTC NOAA

ENAT 141320Z 11010KT 9999 OVC039 05/M02 Q1023 RMK WIND 700FT 08010KT


Station Type Date Time Source
ENAT Decoded METAR 2021/05/14 13:20 UTC NOAA

Alta Lufthavn, Norway (ENAT) 69-59N 023-22E 3M
May 14, 2021 - 09:20 AM EDT / 2021.05.14 1320 UTC
Wind: from the ESE (110 degrees) at 12 MPH (10 KT):0
Visibility: greater than 7 mile(s):0
Sky conditions: overcast
Temperature: 41 F (5 C)
Dew Point: 28 F (-2 C)
Relative Humidity: 60%
Pressure (altimeter): 30.21 in. Hg (1023 hPa)
ob: ENAT 141320Z 11010KT 9999 OVC039 05/M02 Q1023 RMK WIND 700FT 08010KT
cycle: 13

Station Type Date Time Source
ENAT TAF 2008/11/30 23:00 UTC NOAA

TAF TAF ENAT 302300Z 3023/0102 22005KT 7000 -SN FEW008 BKN020
TEMPO 3023/0102 3000 -SN VV012

Example: see airport list